Weather at Flying Diamond Airport

Public forecast

Using degrees Fahrenheit for public forecast. Weather courtesy of forecast.io.

Closest aviation weather report (METAR) to Flying Diamond Airport

Report is more than 6 hours old.

Closest report is Ryan Field, 12.6 nm (23.3 km) NNW. Retrieved 2021/06/18 23:45 UTC (1 day ago):

KRYN 182345Z 35003KT 10SM CLR 45/M05 A2969

Closest aviation forecast (TAF) to Flying Diamond Airport

Closest forecast is Tucson International Airport / Morris Air National Guard Base, 14.1 nm (26.1 km) NE. Retrieved 2021-06-20 00:22 UTC (4 hours ago):

TAF KTUS 192320Z 2000/2024 31011G18KT P6SM FEW120 FM200200 20005KT P6SM SCT140 FM200700 14007KT P6SM FEW140 FM202000 30011G18KT P6SM FEW120